Observations for Trim Patrick St
| Time | AQI | Temp °C | Hum % | Pres Pa | CO μg/m³ | H₂S μg/m³ | NO μg/m³ | NO₂ μg/m³ | O₃ μg/m³ | SO₂ μg/m³ | PM1 μg/m³ | PM2.5 μg/m³ | PM10 μg/m³ |
|---|---|---|---|---|---|---|---|---|---|---|---|---|---|
| Monday 3 August 2026 | |||||||||||||
| 10:17 | 2 | 24.2 | 57 | 73,941 | 0 | 0 | 2.66 | 9.65 | 62.19 | 5.49 | 5.43 | 11.19 | 12.31 |
| 10:16 | 2 | 24.2 | 56 | 73,907 | 0 | 0 | 2.57 | 9.71 | 60.78 | 4.49 | 5.43 | 10.52 | 11.58 |
| 10:15 | 2 | 24.3 | 57 | 73,862 | 0 | 0 | 2.61 | 6.55 | 60.91 | 4.81 | 6.29 | 11.99 | 13.19 |
| 10:14 | 2 | 24.3 | 56 | 73,872 | 0 | 0 | 2.36 | 7.2 | 60 | 4.59 | 4.57 | 10.52 | 11.58 |
| 10:11 | 2 | 24.4 | 57 | 73,941 | 0.06 | 0 | 2.28 | 10.72 | 54.92 | 5.42 | 4.57 | 9.73 | 10.7 |
| 10:09 | 2 | 24.5 | 57 | 73,950 | 0.08 | 0 | 2.31 | 9.21 | 57.65 | 5.77 | 5.43 | 10.47 | 11.52 |
| 10:08 | 2 | 24.5 | 56 | 74,068 | 0.08 | 0 | 2.43 | 9.89 | 56.2 | 5.04 | 5.43 | 10.53 | 11.58 |
| 10:07 | 2 | 24.5 | 56 | 74,168 | 0.11 | 0 | 2.58 | 9.55 | 55.21 | 4.27 | 7.14 | 12.77 | 14.04 |
| 10:05 | 2 | 24.5 | 57 | 74,479 | 0.11 | 0 | 2.76 | 13.6 | 50.53 | 4.17 | 4.57 | 10.46 | 11.5 |
| 10:00 | 2 | 24.3 | 60 | 75,106 | 0.11 | 0 | 2.78 | 13.38 | 46.88 | 5.11 | 5.43 | 10.23 | 11.25 |
| 09:59 | 2 | 24.1 | 60 | 75,273 | 0.07 | 0 | 2.75 | 13.61 | 51.64 | 4.06 | 5.43 | 11 | 12.1 |
| 09:58 | 2 | 24 | 61 | 75,456 | 0.09 | 0 | 2.91 | 7.38 | 49.84 | 4.03 | 6.29 | 10.88 | 11.96 |
| 09:57 | 2 | 23.8 | 61 | 75,686 | 0.15 | 0 | 2.78 | 15.06 | 62.15 | 3.92 | 6.29 | 10.93 | 12.02 |
| 09:56 | 2 | 23.7 | 61 | 75,817 | 0.04 | 0 | 2.88 | 13.26 | 46.6 | 3.9 | 6.29 | 10.15 | 11.17 |
| 09:55 | 2 | 23.5 | 62 | 76,002 | 0.03 | 0 | 2.95 | 11.89 | 49.8 | 4.01 | 4.57 | 9.38 | 10.31 |
| 09:54 | 2 | 23.4 | 61 | 76,222 | 0.03 | 0 | 2.88 | 13.21 | 48.72 | 3.63 | 5.43 | 10.18 | 11.2 |
| 09:53 | 2 | 23.3 | 61 | 76,460 | 0.01 | 0 | 3.06 | 9.83 | 47.59 | 3.09 | 4.57 | 10.14 | 11.15 |
| 09:52 | 2 | 23.3 | 61 | 76,792 | 0.02 | 0 | 2.96 | 11.61 | 51.24 | 3.23 | 5.43 | 10.13 | 11.14 |
| 09:51 | 2 | 23.2 | 62 | 77,195 | 0 | 0 | 2.84 | 13 | 47.75 | 4.38 | 5.43 | 10.08 | 11.08 |
| 09:50 | 2 | 23.1 | 62 | 77,538 | 0 | 0 | 2.73 | 13.29 | 47.16 | 4.26 | 6.29 | 10.82 | 11.9 |